首页
METAR-TAF:

METAR-TAF

机场 :

Naval Air Station Whidbey Island (Ault Field)

橡港, 华盛顿, 美国

纬度: 48-20-57N, 经度: 122-39-02W, 海拔: 14米

当前天气观测

该预报发布于36分钟前的17:23 UTC
风速5节,风向西转西南
温度 16°C
湿度 82%
气压 1024 hPa
能見度: 16.1公里
散云层高于1100英尺
多云层高于5000英尺
多云层高于7000英尺

METAR: KNUW 081723Z 24005KT 10SM SCT011 BKN050 BKN070 16/13 A3023 RMK AO2 T01560128

时间: 10:59 (17:59 UTC)

预报

预报有效从08日的 15点(UTC)到 09日的 15点(UTC)
风速8节,风向西
能见度10公里或以上
散云层高于3000英尺
多云层高于5000英尺
多云层高于10000英尺
阴天层高于16000英尺
短暂存在
从 08日的 15点(UTC)到 08日的 20点(UTC)
风速6节,风向多变
能見度: 4800
多云层高于500英尺
阴天层高于2000英尺
轻雾
从 08日的 2200点(UTC)
风速10节,风向西
能见度10公里或以上
散云层高于5000英尺
散云层高于20000英尺
从 09日的 0400点(UTC)
风速5节,风向多变
能见度10公里或以上
少量云层高于2000英尺
散云层高于5000英尺
散云层高于20000英尺
短暂存在
从 09日的 09点(UTC)到 09日的 15点(UTC)
能見度: 4800
多云层高于800英尺
阴天层高于2800英尺
轻雾, 碎片雾

TAF: KNUW 0815/0915 28008KT 9999 SCT030 BKN050 BKN100 OVC160 QNH3018INS TEMPO 0815/0820 VRB06KT 4800 BR BKN005 OVC020 FM082200 28010KT 9999 SCT050 SCT200 QNH3019INS FM090400 VRB05KT 9999 FEW020 SCT050 SCT200 QNH3020INS TEMPO 0909/0915 4800 BR BCFG BKN008 OVC028 T19/0823Z T13/0913Z FS30162

超过4000个机场的气象观测和天气预报(METAR&TAF报告)。

可查询的气象台以黄色和红色小点在地图上表示。

将鼠标移到小点上方,可查看气象台名称。

然后点击查看天气观测和预报。

如需切换地图:点击带黑十字的绿色按钮放大地图;点击带横线的绿色按钮缩小地图;或者点击绿色箭头查看邻近地区的地图。


METAR-TAF: